sensor_id;sensor_type;location;lat;lon;timestamp;P1;durP1;ratioP1;P2;durP2;ratioP2
70213;SDS011;60138;55.808;37.078;2022-12-07T00:00:41;7.28;;;4.63;;
70213;SDS011;60138;55.808;37.078;2022-12-07T00:03:07;6.95;;;4.75;;
70213;SDS011;60138;55.808;37.078;2022-12-07T00:05:32;5.87;;;4.50;;
70213;SDS011;60138;55.808;37.078;2022-12-07T00:07:58;11.02;;;5.28;;
70213;SDS011;60138;55.808;37.078;2022-12-07T00:10:24;7.23;;;4.80;;
70213;SDS011;60138;55.808;37.078;2022-12-07T00:12:49;6.55;;;4.40;;
70213;SDS011;60138;55.808;37.078;2022-12-07T00:15:15;5.33;;;4.47;;
70213;SDS011;60138;55.808;37.078;2022-12-07T00:17:41;9.15;;;5.45;;
70213;SDS011;60138;55.808;37.078;2022-12-07T00:20:07;6.30;;;5.37;;
70213;SDS011;60138;55.808;37.078;2022-12-07T00:22:33;6.70;;;5.25;;
70213;SDS011;60138;55.808;37.078;2022-12-07T00:24:59;5.73;;;4.17;;
70213;SDS011;60138;55.808;37.078;2022-12-07T00:27:24;7.65;;;4.53;;
70213;SDS011;60138;55.808;37.078;2022-12-07T00:29:52;6.70;;;4.37;;
70213;SDS011;60138;55.808;37.078;2022-12-07T00:32:18;6.32;;;4.60;;
70213;SDS011;60138;55.808;37.078;2022-12-07T00:34:44;6.43;;;4.43;;
70213;SDS011;60138;55.808;37.078;2022-12-07T00:37:12;7.30;;;5.05;;
70213;SDS011;60138;55.808;37.078;2022-12-07T00:39:38;8.40;;;5.03;;
70213;SDS011;60138;55.808;37.078;2022-12-07T00:42:03;8.65;;;5.18;;
70213;SDS011;60138;55.808;37.078;2022-12-07T00:44:29;7.80;;;5.43;;
70213;SDS011;60138;55.808;37.078;2022-12-07T00:46:54;9.95;;;4.65;;
70213;SDS011;60138;55.808;37.078;2022-12-07T00:49:20;6.43;;;4.40;;
70213;SDS011;60138;55.808;37.078;2022-12-07T00:51:48;9.00;;;4.43;;
70213;SDS011;60138;55.808;37.078;2022-12-07T00:54:14;8.33;;;5.80;;
70213;SDS011;60138;55.808;37.078;2022-12-07T00:56:42;8.20;;;4.82;;
70213;SDS011;60138;55.808;37.078;2022-12-07T00:59:10;6.73;;;4.57;;
70213;SDS011;60138;55.808;37.078;2022-12-07T01:01:38;6.22;;;4.43;;
70213;SDS011;60138;55.808;37.078;2022-12-07T01:04:04;6.95;;;5.40;;
70213;SDS011;60138;55.808;37.078;2022-12-07T01:06:30;6.63;;;5.93;;
70213;SDS011;60138;55.808;37.078;2022-12-07T01:08:56;10.30;;;4.32;;
70213;SDS011;60138;55.808;37.078;2022-12-07T01:11:23;9.02;;;5.07;;
70213;SDS011;60138;55.808;37.078;2022-12-07T01:13:50;6.57;;;4.63;;
70213;SDS011;60138;55.808;37.078;2022-12-07T01:16:17;6.75;;;3.88;;
70213;SDS011;60138;55.808;37.078;2022-12-07T01:18:45;7.18;;;5.03;;
70213;SDS011;60138;55.808;37.078;2022-12-07T01:21:14;8.85;;;5.43;;
70213;SDS011;60138;55.808;37.078;2022-12-07T01:23:42;5.63;;;4.68;;
70213;SDS011;60138;55.808;37.078;2022-12-07T01:26:12;8.65;;;4.88;;
70213;SDS011;60138;55.808;37.078;2022-12-07T01:28:39;6.60;;;4.80;;
70213;SDS011;60138;55.808;37.078;2022-12-07T01:31:06;7.77;;;5.13;;
70213;SDS011;60138;55.808;37.078;2022-12-07T01:33:35;5.25;;;4.20;;
70213;SDS011;60138;55.808;37.078;2022-12-07T01:36:05;7.25;;;4.88;;
70213;SDS011;60138;55.808;37.078;2022-12-07T01:38:31;6.73;;;4.60;;
70213;SDS011;60138;55.808;37.078;2022-12-07T01:41:03;7.60;;;5.40;;
70213;SDS011;60138;55.808;37.078;2022-12-07T01:43:29;5.97;;;4.33;;
70213;SDS011;60138;55.808;37.078;2022-12-07T01:45:56;6.55;;;5.05;;
70213;SDS011;60138;55.808;37.078;2022-12-07T01:48:24;7.68;;;5.30;;
70213;SDS011;60138;55.808;37.078;2022-12-07T01:50:54;9.57;;;5.75;;
70213;SDS011;60138;55.808;37.078;2022-12-07T01:53:25;7.03;;;5.60;;
70213;SDS011;60138;55.808;37.078;2022-12-07T01:55:54;6.95;;;4.80;;
70213;SDS011;60138;55.808;37.078;2022-12-07T01:58:21;8.77;;;5.05;;
70213;SDS011;60138;55.808;37.078;2022-12-07T02:00:47;9.37;;;5.43;;
70213;SDS011;60138;55.808;37.078;2022-12-07T02:03:18;6.15;;;5.20;;
70213;SDS011;60138;55.808;37.078;2022-12-07T02:05:49;7.25;;;4.82;;
70213;SDS011;60138;55.808;37.078;2022-12-07T02:08:15;7.80;;;5.03;;
70213;SDS011;60138;55.808;37.078;2022-12-07T02:10:42;7.82;;;4.57;;
70213;SDS011;60138;55.808;37.078;2022-12-07T02:13:25;6.30;;;4.60;;
70213;SDS011;60138;55.808;37.078;2022-12-07T02:21:14;7.18;;;4.85;;
70213;SDS011;60138;55.808;37.078;2022-12-07T02:29:47;8.65;;;4.82;;
70213;SDS011;60138;55.808;37.078;2022-12-07T02:32:26;7.72;;;5.10;;
70213;SDS011;60138;55.808;37.078;2022-12-07T02:35:06;13.77;;;4.37;;
70213;SDS011;60138;55.808;37.078;2022-12-07T02:43:24;6.20;;;4.50;;
70213;SDS011;60138;55.808;37.078;2022-12-07T02:45:53;8.90;;;5.57;;
70213;SDS011;60138;55.808;37.078;2022-12-07T02:48:23;8.07;;;5.88;;
70213;SDS011;60138;55.808;37.078;2022-12-07T02:50:51;8.63;;;5.40;;
70213;SDS011;60138;55.808;37.078;2022-12-07T03:09:49;8.23;;;5.30;;
70213;SDS011;60138;55.808;37.078;2022-12-07T03:12:21;9.88;;;6.07;;
70213;SDS011;60138;55.808;37.078;2022-12-07T03:15:09;7.97;;;5.70;;
70213;SDS011;60138;55.808;37.078;2022-12-07T03:17:40;8.45;;;5.13;;
70213;SDS011;60138;55.808;37.078;2022-12-07T03:20:09;9.30;;;6.10;;
70213;SDS011;60138;55.808;37.078;2022-12-07T03:22:38;5.55;;;4.95;;
70213;SDS011;60138;55.808;37.078;2022-12-07T03:25:08;6.53;;;5.20;;
70213;SDS011;60138;55.808;37.078;2022-12-07T03:27:39;6.67;;;4.80;;
70213;SDS011;60138;55.808;37.078;2022-12-07T03:38:06;8.27;;;5.80;;
70213;SDS011;60138;55.808;37.078;2022-12-07T03:43:14;6.90;;;5.53;;
70213;SDS011;60138;55.808;37.078;2022-12-07T03:45:42;8.02;;;4.85;;
70213;SDS011;60138;55.808;37.078;2022-12-07T03:51:28;8.55;;;5.70;;
70213;SDS011;60138;55.808;37.078;2022-12-07T03:53:59;7.50;;;4.50;;
70213;SDS011;60138;55.808;37.078;2022-12-07T03:56:32;11.25;;;5.43;;
70213;SDS011;60138;55.808;37.078;2022-12-07T03:58:59;7.35;;;4.85;;
70213;SDS011;60138;55.808;37.078;2022-12-07T04:01:25;6.67;;;4.83;;
70213;SDS011;60138;55.808;37.078;2022-12-07T04:03:50;12.73;;;6.70;;
70213;SDS011;60138;55.808;37.078;2022-12-07T04:06:16;10.00;;;5.47;;
70213;SDS011;60138;55.808;37.078;2022-12-07T04:08:42;8.73;;;4.90;;
70213;SDS011;60138;55.808;37.078;2022-12-07T04:11:10;9.00;;;5.73;;
70213;SDS011;60138;55.808;37.078;2022-12-07T04:13:40;10.90;;;5.88;;
70213;SDS011;60138;55.808;37.078;2022-12-07T04:16:08;10.00;;;5.60;;
70213;SDS011;60138;55.808;37.078;2022-12-07T04:18:34;12.80;;;5.43;;
70213;SDS011;60138;55.808;37.078;2022-12-07T04:20:59;10.15;;;5.60;;
70213;SDS011;60138;55.808;37.078;2022-12-07T04:23:25;11.40;;;5.00;;
70213;SDS011;60138;55.808;37.078;2022-12-07T04:25:51;9.60;;;5.65;;
70213;SDS011;60138;55.808;37.078;2022-12-07T04:28:16;11.02;;;5.45;;
70213;SDS011;60138;55.808;37.078;2022-12-07T04:30:42;11.50;;;6.00;;
70213;SDS011;60138;55.808;37.078;2022-12-07T04:33:08;10.73;;;5.30;;
70213;SDS011;60138;55.808;37.078;2022-12-07T04:35:33;8.50;;;5.18;;
70213;SDS011;60138;55.808;37.078;2022-12-07T04:37:59;13.60;;;6.67;;
70213;SDS011;60138;55.808;37.078;2022-12-07T04:40:24;8.27;;;5.63;;
70213;SDS011;60138;55.808;37.078;2022-12-07T04:42:51;11.25;;;5.65;;
70213;SDS011;60138;55.808;37.078;2022-12-07T04:45:17;9.40;;;5.83;;
70213;SDS011;60138;55.808;37.078;2022-12-07T04:47:43;5.00;;;3.97;;
70213;SDS011;60138;55.808;37.078;2022-12-07T04:50:09;5.00;;;4.33;;
70213;SDS011;60138;55.808;37.078;2022-12-07T04:52:35;10.55;;;5.57;;
70213;SDS011;60138;55.808;37.078;2022-12-07T04:55:00;8.40;;;5.10;;
70213;SDS011;60138;55.808;37.078;2022-12-07T04:57:26;15.38;;;5.55;;
70213;SDS011;60138;55.808;37.078;2022-12-07T04:59:52;15.93;;;6.70;;
70213;SDS011;60138;55.808;37.078;2022-12-07T05:02:20;7.93;;;6.60;;
70213;SDS011;60138;55.808;37.078;2022-12-07T05:04:45;11.07;;;5.50;;
70213;SDS011;60138;55.808;37.078;2022-12-07T05:07:11;10.18;;;7.07;;
70213;SDS011;60138;55.808;37.078;2022-12-07T05:09:37;13.47;;;6.03;;
70213;SDS011;60138;55.808;37.078;2022-12-07T05:12:02;8.37;;;5.70;;
70213;SDS011;60138;55.808;37.078;2022-12-07T05:14:28;7.95;;;6.13;;
70213;SDS011;60138;55.808;37.078;2022-12-07T05:16:54;10.93;;;5.57;;
70213;SDS011;60138;55.808;37.078;2022-12-07T05:19:19;12.02;;;5.25;;
70213;SDS011;60138;55.808;37.078;2022-12-07T05:21:45;10.13;;;6.17;;
70213;SDS011;60138;55.808;37.078;2022-12-07T05:24:12;16.25;;;7.30;;
70213;SDS011;60138;55.808;37.078;2022-12-07T05:26:39;10.38;;;5.85;;
70213;SDS011;60138;55.808;37.078;2022-12-07T05:29:05;15.63;;;6.10;;
70213;SDS011;60138;55.808;37.078;2022-12-07T05:31:31;10.45;;;6.43;;
70213;SDS011;60138;55.808;37.078;2022-12-07T05:33:59;11.07;;;6.65;;
70213;SDS011;60138;55.808;37.078;2022-12-07T05:36:25;10.45;;;6.45;;
70213;SDS011;60138;55.808;37.078;2022-12-07T05:38:51;12.37;;;6.37;;
70213;SDS011;60138;55.808;37.078;2022-12-07T05:41:17;7.90;;;5.33;;
70213;SDS011;60138;55.808;37.078;2022-12-07T05:43:44;12.75;;;7.15;;
70213;SDS011;60138;55.808;37.078;2022-12-07T05:46:09;11.23;;;6.18;;
70213;SDS011;60138;55.808;37.078;2022-12-07T05:48:35;19.33;;;5.63;;
70213;SDS011;60138;55.808;37.078;2022-12-07T05:51:01;9.73;;;5.70;;
70213;SDS011;60138;55.808;37.078;2022-12-07T05:53:26;9.73;;;5.78;;
70213;SDS011;60138;55.808;37.078;2022-12-07T05:55:52;10.27;;;5.83;;
70213;SDS011;60138;55.808;37.078;2022-12-07T05:58:18;10.20;;;5.57;;
70213;SDS011;60138;55.808;37.078;2022-12-07T06:00:43;11.20;;;6.07;;
70213;SDS011;60138;55.808;37.078;2022-12-07T06:03:09;7.63;;;5.13;;
70213;SDS011;60138;55.808;37.078;2022-12-07T06:05:37;10.68;;;5.40;;
70213;SDS011;60138;55.808;37.078;2022-12-07T06:08:03;15.02;;;6.35;;
70213;SDS011;60138;55.808;37.078;2022-12-07T06:10:28;8.80;;;5.43;;
70213;SDS011;60138;55.808;37.078;2022-12-07T06:12:54;12.15;;;6.72;;
70213;SDS011;60138;55.808;37.078;2022-12-07T06:15:20;10.10;;;5.97;;
70213;SDS011;60138;55.808;37.078;2022-12-07T06:17:45;9.52;;;5.88;;
70213;SDS011;60138;55.808;37.078;2022-12-07T06:20:12;10.67;;;6.33;;
70213;SDS011;60138;55.808;37.078;2022-12-07T06:22:38;13.77;;;6.82;;
70213;SDS011;60138;55.808;37.078;2022-12-07T06:25:04;13.77;;;7.60;;
70213;SDS011;60138;55.808;37.078;2022-12-07T06:27:30;12.50;;;7.60;;
70213;SDS011;60138;55.808;37.078;2022-12-07T06:29:55;12.75;;;8.30;;
70213;SDS011;60138;55.808;37.078;2022-12-07T06:32:21;14.53;;;7.53;;
70213;SDS011;60138;55.808;37.078;2022-12-07T06:34:47;11.17;;;6.90;;
70213;SDS011;60138;55.808;37.078;2022-12-07T06:37:15;9.88;;;6.63;;
70213;SDS011;60138;55.808;37.078;2022-12-07T06:39:41;9.27;;;5.90;;
70213;SDS011;60138;55.808;37.078;2022-12-07T06:42:10;12.80;;;7.70;;
70213;SDS011;60138;55.808;37.078;2022-12-07T06:44:36;16.52;;;8.52;;
70213;SDS011;60138;55.808;37.078;2022-12-07T06:47:01;11.00;;;7.83;;
70213;SDS011;60138;55.808;37.078;2022-12-07T06:49:27;10.77;;;7.38;;
70213;SDS011;60138;55.808;37.078;2022-12-07T06:51:52;10.47;;;6.67;;
70213;SDS011;60138;55.808;37.078;2022-12-07T06:54:18;9.73;;;6.77;;
70213;SDS011;60138;55.808;37.078;2022-12-07T06:56:44;10.10;;;6.90;;
70213;SDS011;60138;55.808;37.078;2022-12-07T07:00:06;10.37;;;5.93;;
70213;SDS011;60138;55.808;37.078;2022-12-07T07:02:46;13.07;;;6.78;;
70213;SDS011;60138;55.808;37.078;2022-12-07T07:05:14;6.43;;;4.50;;
70213;SDS011;60138;55.808;37.078;2022-12-07T07:08:14;10.48;;;6.65;;
70213;SDS011;60138;55.808;37.078;2022-12-07T07:11:02;7.80;;;5.53;;
70213;SDS011;60138;55.808;37.078;2022-12-07T07:14:04;10.15;;;5.97;;
70213;SDS011;60138;55.808;37.078;2022-12-07T07:16:52;12.18;;;6.05;;
70213;SDS011;60138;55.808;37.078;2022-12-07T07:19:40;11.20;;;5.70;;
70213;SDS011;60138;55.808;37.078;2022-12-07T07:22:21;10.10;;;6.57;;
70213;SDS011;60138;55.808;37.078;2022-12-07T07:24:47;11.50;;;7.05;;
70213;SDS011;60138;55.808;37.078;2022-12-07T07:27:17;10.40;;;7.10;;
70213;SDS011;60138;55.808;37.078;2022-12-07T07:30:02;14.15;;;7.57;;
70213;SDS011;60138;55.808;37.078;2022-12-07T07:32:30;11.20;;;6.68;;
70213;SDS011;60138;55.808;37.078;2022-12-07T07:34:58;9.25;;;7.10;;
70213;SDS011;60138;55.808;37.078;2022-12-07T07:37:24;9.73;;;6.65;;
70213;SDS011;60138;55.808;37.078;2022-12-07T07:39:50;9.88;;;6.55;;
70213;SDS011;60138;55.808;37.078;2022-12-07T07:42:16;11.47;;;5.63;;
70213;SDS011;60138;55.808;37.078;2022-12-07T07:44:42;11.80;;;6.97;;
70213;SDS011;60138;55.808;37.078;2022-12-07T07:47:08;10.00;;;6.17;;
70213;SDS011;60138;55.808;37.078;2022-12-07T07:49:34;9.88;;;6.45;;
70213;SDS011;60138;55.808;37.078;2022-12-07T07:52:00;10.93;;;7.20;;
70213;SDS011;60138;55.808;37.078;2022-12-07T07:54:25;5.13;;;3.92;;
70213;SDS011;60138;55.808;37.078;2022-12-07T07:56:52;8.67;;;6.37;;
70213;SDS011;60138;55.808;37.078;2022-12-07T07:59:20;8.10;;;5.50;;
70213;SDS011;60138;55.808;37.078;2022-12-07T08:01:48;10.03;;;5.77;;
70213;SDS011;60138;55.808;37.078;2022-12-07T08:04:16;9.98;;;6.20;;
70213;SDS011;60138;55.808;37.078;2022-12-07T08:07:02;8.18;;;6.07;;
70213;SDS011;60138;55.808;37.078;2022-12-07T08:09:34;9.75;;;6.45;;
70213;SDS011;60138;55.808;37.078;2022-12-07T08:12:13;11.50;;;6.45;;
70213;SDS011;60138;55.808;37.078;2022-12-07T08:14:42;6.03;;;4.80;;
70213;SDS011;60138;55.808;37.078;2022-12-07T08:17:28;13.77;;;5.70;;
70213;SDS011;60138;55.808;37.078;2022-12-07T08:19:54;9.43;;;6.67;;
70213;SDS011;60138;55.808;37.078;2022-12-07T08:22:31;12.32;;;6.07;;
70213;SDS011;60138;55.808;37.078;2022-12-07T08:24:57;10.60;;;5.47;;
70213;SDS011;60138;55.808;37.078;2022-12-07T08:27:23;9.90;;;6.45;;
70213;SDS011;60138;55.808;37.078;2022-12-07T08:29:51;12.53;;;7.67;;
70213;SDS011;60138;55.808;37.078;2022-12-07T08:32:17;8.70;;;5.68;;
70213;SDS011;60138;55.808;37.078;2022-12-07T08:34:53;11.40;;;6.70;;
70213;SDS011;60138;55.808;37.078;2022-12-07T08:37:41;12.63;;;7.20;;
70213;SDS011;60138;55.808;37.078;2022-12-07T08:40:19;13.23;;;6.45;;
70213;SDS011;60138;55.808;37.078;2022-12-07T08:43:05;11.25;;;6.55;;
70213;SDS011;60138;55.808;37.078;2022-12-07T08:45:39;8.73;;;6.37;;
70213;SDS011;60138;55.808;37.078;2022-12-07T08:48:06;11.95;;;5.57;;
70213;SDS011;60138;55.808;37.078;2022-12-07T08:50:43;10.55;;;6.18;;
70213;SDS011;60138;55.808;37.078;2022-12-07T08:53:09;14.13;;;6.67;;
70213;SDS011;60138;55.808;37.078;2022-12-07T08:55:54;11.35;;;6.55;;
70213;SDS011;60138;55.808;37.078;2022-12-07T08:58:30;6.88;;;5.15;;
70213;SDS011;60138;55.808;37.078;2022-12-07T09:01:17;15.55;;;8.30;;
70213;SDS011;60138;55.808;37.078;2022-12-07T09:03:53;9.73;;;5.90;;
70213;SDS011;60138;55.808;37.078;2022-12-07T09:06:43;10.93;;;6.28;;
70213;SDS011;60138;55.808;37.078;2022-12-07T09:09:30;9.18;;;6.32;;
70213;SDS011;60138;55.808;37.078;2022-12-07T09:12:00;9.53;;;5.97;;
70213;SDS011;60138;55.808;37.078;2022-12-07T09:14:41;10.75;;;6.45;;
70213;SDS011;60138;55.808;37.078;2022-12-07T09:17:43;10.63;;;6.63;;
70213;SDS011;60138;55.808;37.078;2022-12-07T09:20:23;11.03;;;5.40;;
70213;SDS011;60138;55.808;37.078;2022-12-07T09:23:18;11.65;;;5.90;;
70213;SDS011;60138;55.808;37.078;2022-12-07T09:25:43;9.23;;;5.88;;
70213;SDS011;60138;55.808;37.078;2022-12-07T09:28:24;7.03;;;5.57;;
70213;SDS011;60138;55.808;37.078;2022-12-07T09:34:08;8.70;;;5.90;;
70213;SDS011;60138;55.808;37.078;2022-12-07T09:36:39;11.10;;;6.22;;
70213;SDS011;60138;55.808;37.078;2022-12-07T09:39:17;8.27;;;6.35;;
70213;SDS011;60138;55.808;37.078;2022-12-07T09:41:47;7.90;;;5.88;;
70213;SDS011;60138;55.808;37.078;2022-12-07T09:44:47;10.10;;;6.70;;
70213;SDS011;60138;55.808;37.078;2022-12-07T09:47:33;7.10;;;4.23;;
70213;SDS011;60138;55.808;37.078;2022-12-07T09:50:03;8.63;;;5.90;;
70213;SDS011;60138;55.808;37.078;2022-12-07T09:53:24;10.00;;;6.25;;
70213;SDS011;60138;55.808;37.078;2022-12-07T09:56:37;8.07;;;6.13;;
70213;SDS011;60138;55.808;37.078;2022-12-07T09:59:03;8.48;;;5.50;;
70213;SDS011;60138;55.808;37.078;2022-12-07T10:01:30;8.77;;;7.32;;
70213;SDS011;60138;55.808;37.078;2022-12-07T10:04:09;11.47;;;5.87;;
70213;SDS011;60138;55.808;37.078;2022-12-07T10:06:44;8.43;;;5.30;;
70213;SDS011;60138;55.808;37.078;2022-12-07T10:09:11;10.93;;;7.00;;
70213;SDS011;60138;55.808;37.078;2022-12-07T10:14:23;10.50;;;6.03;;
70213;SDS011;60138;55.808;37.078;2022-12-07T10:16:48;7.03;;;5.67;;
70213;SDS011;60138;55.808;37.078;2022-12-07T10:21:46;8.07;;;5.93;;
70213;SDS011;60138;55.808;37.078;2022-12-07T10:24:24;8.48;;;5.30;;
70213;SDS011;60138;55.808;37.078;2022-12-07T10:26:50;6.80;;;5.17;;
70213;SDS011;60138;55.808;37.078;2022-12-07T10:31:47;6.70;;;4.63;;
70213;SDS011;60138;55.808;37.078;2022-12-07T10:34:35;10.15;;;5.82;;
70213;SDS011;60138;55.808;37.078;2022-12-07T10:37:23;12.23;;;6.90;;
70213;SDS011;60138;55.808;37.078;2022-12-07T10:42:28;8.90;;;5.53;;
70213;SDS011;60138;55.808;37.078;2022-12-07T10:53:07;11.80;;;6.57;;
70213;SDS011;60138;55.808;37.078;2022-12-07T10:58:27;7.47;;;5.20;;
70213;SDS011;60138;55.808;37.078;2022-12-07T11:06:39;7.47;;;5.40;;
70213;SDS011;60138;55.808;37.078;2022-12-07T11:17:01;10.85;;;6.30;;
70213;SDS011;60138;55.808;37.078;2022-12-07T11:22:37;8.95;;;6.45;;
70213;SDS011;60138;55.808;37.078;2022-12-07T11:25:20;10.45;;;6.38;;
70213;SDS011;60138;55.808;37.078;2022-12-07T11:38:50;7.82;;;5.53;;
70213;SDS011;60138;55.808;37.078;2022-12-07T11:41:39;9.48;;;6.70;;
70213;SDS011;60138;55.808;37.078;2022-12-07T11:47:11;9.27;;;6.43;;
70213;SDS011;60138;55.808;37.078;2022-12-07T11:55:05;12.17;;;7.07;;
70213;SDS011;60138;55.808;37.078;2022-12-07T11:57:44;13.88;;;7.20;;
70213;SDS011;60138;55.808;37.078;2022-12-07T12:00:15;13.13;;;6.63;;
70213;SDS011;60138;55.808;37.078;2022-12-07T12:02:51;12.32;;;6.40;;
70213;SDS011;60138;55.808;37.078;2022-12-07T12:05:23;14.30;;;7.45;;
70213;SDS011;60138;55.808;37.078;2022-12-07T12:08:34;10.65;;;6.70;;
70213;SDS011;60138;55.808;37.078;2022-12-07T12:21:54;10.90;;;6.90;;
70213;SDS011;60138;55.808;37.078;2022-12-07T12:24:29;10.70;;;6.10;;
70213;SDS011;60138;55.808;37.078;2022-12-07T12:27:05;8.85;;;6.00;;
70213;SDS011;60138;55.808;37.078;2022-12-07T12:29:35;12.05;;;7.00;;
70213;SDS011;60138;55.808;37.078;2022-12-07T12:42:52;15.55;;;6.13;;
70213;SDS011;60138;55.808;37.078;2022-12-07T12:50:20;10.68;;;5.78;;
70213;SDS011;60138;55.808;37.078;2022-12-07T12:53:00;8.77;;;6.32;;
70213;SDS011;60138;55.808;37.078;2022-12-07T12:59:17;10.52;;;6.25;;
70213;SDS011;60138;55.808;37.078;2022-12-07T13:15:37;21.70;;;8.30;;
70213;SDS011;60138;55.808;37.078;2022-12-07T13:20:46;15.20;;;8.20;;
70213;SDS011;60138;55.808;37.078;2022-12-07T13:23:14;23.02;;;8.02;;
70213;SDS011;60138;55.808;37.078;2022-12-07T13:29:11;11.40;;;6.97;;
70213;SDS011;60138;55.808;37.078;2022-12-07T13:39:54;13.67;;;8.00;;
70213;SDS011;60138;55.808;37.078;2022-12-07T13:42:31;17.90;;;7.93;;
70213;SDS011;60138;55.808;37.078;2022-12-07T13:45:00;13.05;;;7.00;;
70213;SDS011;60138;55.808;37.078;2022-12-07T13:47:49;15.10;;;7.73;;
70213;SDS011;60138;55.808;37.078;2022-12-07T13:52:55;15.38;;;8.02;;
70213;SDS011;60138;55.808;37.078;2022-12-07T13:55:22;15.10;;;8.75;;
70213;SDS011;60138;55.808;37.078;2022-12-07T13:57:49;16.55;;;8.98;;
70213;SDS011;60138;55.808;37.078;2022-12-07T14:00:17;15.02;;;8.15;;
70213;SDS011;60138;55.808;37.078;2022-12-07T14:02:55;12.90;;;8.20;;
70213;SDS011;60138;55.808;37.078;2022-12-07T14:05:34;15.15;;;8.45;;
70213;SDS011;60138;55.808;37.078;2022-12-07T14:08:04;15.35;;;9.23;;
70213;SDS011;60138;55.808;37.078;2022-12-07T14:15:58;15.30;;;9.57;;
70213;SDS011;60138;55.808;37.078;2022-12-07T14:18:27;14.45;;;8.60;;
70213;SDS011;60138;55.808;37.078;2022-12-07T14:21:14;12.80;;;7.05;;
70213;SDS011;60138;55.808;37.078;2022-12-07T14:23:40;9.80;;;6.80;;
70213;SDS011;60138;55.808;37.078;2022-12-07T14:26:13;15.45;;;7.97;;
70213;SDS011;60138;55.808;37.078;2022-12-07T14:28:41;11.87;;;7.60;;
70213;SDS011;60138;55.808;37.078;2022-12-07T14:31:10;12.75;;;7.88;;
70213;SDS011;60138;55.808;37.078;2022-12-07T14:33:39;18.95;;;9.52;;
70213;SDS011;60138;55.808;37.078;2022-12-07T14:36:05;14.33;;;7.90;;
70213;SDS011;60138;55.808;37.078;2022-12-07T14:38:31;13.60;;;7.47;;
70213;SDS011;60138;55.808;37.078;2022-12-07T14:40:57;12.67;;;8.60;;
70213;SDS011;60138;55.808;37.078;2022-12-07T14:43:22;15.32;;;7.45;;
70213;SDS011;60138;55.808;37.078;2022-12-07T14:45:48;15.53;;;8.13;;
70213;SDS011;60138;55.808;37.078;2022-12-07T14:48:15;13.93;;;7.50;;
70213;SDS011;60138;55.808;37.078;2022-12-07T14:50:43;13.70;;;7.88;;
70213;SDS011;60138;55.808;37.078;2022-12-07T14:53:15;11.60;;;6.43;;
70213;SDS011;60138;55.808;37.078;2022-12-07T14:55:43;19.08;;;9.25;;
70213;SDS011;60138;55.808;37.078;2022-12-07T14:58:18;19.10;;;8.40;;
70213;SDS011;60138;55.808;37.078;2022-12-07T15:00:44;13.43;;;7.55;;
70213;SDS011;60138;55.808;37.078;2022-12-07T15:03:10;12.90;;;7.30;;
70213;SDS011;60138;55.808;37.078;2022-12-07T15:05:36;16.87;;;8.00;;
70213;SDS011;60138;55.808;37.078;2022-12-07T15:08:02;19.10;;;7.80;;
70213;SDS011;60138;55.808;37.078;2022-12-07T15:10:29;14.80;;;8.60;;
70213;SDS011;60138;55.808;37.078;2022-12-07T15:12:57;18.20;;;9.18;;
70213;SDS011;60138;55.808;37.078;2022-12-07T15:15:24;13.90;;;8.00;;
70213;SDS011;60138;55.808;37.078;2022-12-07T15:17:49;17.85;;;8.45;;
70213;SDS011;60138;55.808;37.078;2022-12-07T15:20:15;13.45;;;7.70;;
70213;SDS011;60138;55.808;37.078;2022-12-07T15:22:41;15.20;;;7.97;;
70213;SDS011;60138;55.808;37.078;2022-12-07T15:25:07;15.68;;;6.65;;
70213;SDS011;60138;55.808;37.078;2022-12-07T15:27:34;12.63;;;6.43;;
70213;SDS011;60138;55.808;37.078;2022-12-07T15:29:59;16.40;;;8.93;;
70213;SDS011;60138;55.808;37.078;2022-12-07T15:32:25;11.05;;;6.95;;
70213;SDS011;60138;55.808;37.078;2022-12-07T15:34:51;14.90;;;7.97;;
70213;SDS011;60138;55.808;37.078;2022-12-07T15:37:17;12.93;;;6.47;;
70213;SDS011;60138;55.808;37.078;2022-12-07T15:39:42;11.50;;;7.38;;
70213;SDS011;60138;55.808;37.078;2022-12-07T15:42:08;12.27;;;7.30;;
70213;SDS011;60138;55.808;37.078;2022-12-07T15:44:34;11.15;;;6.32;;
70213;SDS011;60138;55.808;37.078;2022-12-07T15:47:00;14.00;;;8.23;;
70213;SDS011;60138;55.808;37.078;2022-12-07T15:49:26;16.60;;;8.77;;
70213;SDS011;60138;55.808;37.078;2022-12-07T15:51:52;13.98;;;8.63;;
70213;SDS011;60138;55.808;37.078;2022-12-07T15:54:20;12.03;;;5.87;;
70213;SDS011;60138;55.808;37.078;2022-12-07T15:56:50;16.73;;;8.38;;
70213;SDS011;60138;55.808;37.078;2022-12-07T15:59:16;12.98;;;7.63;;
70213;SDS011;60138;55.808;37.078;2022-12-07T16:01:42;11.85;;;6.75;;
70213;SDS011;60138;55.808;37.078;2022-12-07T16:04:08;10.73;;;7.13;;
70213;SDS011;60138;55.808;37.078;2022-12-07T16:06:34;11.10;;;6.73;;
70213;SDS011;60138;55.808;37.078;2022-12-07T16:08:59;13.50;;;7.03;;
70213;SDS011;60138;55.808;37.078;2022-12-07T16:11:25;16.43;;;8.07;;
70213;SDS011;60138;55.808;37.078;2022-12-07T16:13:51;11.85;;;8.20;;
70213;SDS011;60138;55.808;37.078;2022-12-07T16:16:19;11.57;;;7.23;;
70213;SDS011;60138;55.808;37.078;2022-12-07T16:18:45;15.40;;;7.90;;
70213;SDS011;60138;55.808;37.078;2022-12-07T16:21:11;15.68;;;8.73;;
70213;SDS011;60138;55.808;37.078;2022-12-07T16:23:38;11.68;;;8.05;;
70213;SDS011;60138;55.808;37.078;2022-12-07T16:26:14;17.20;;;9.00;;
70213;SDS011;60138;55.808;37.078;2022-12-07T16:28:42;14.75;;;7.28;;
70213;SDS011;60138;55.808;37.078;2022-12-07T16:31:10;14.13;;;7.20;;
70213;SDS011;60138;55.808;37.078;2022-12-07T16:33:38;18.60;;;9.35;;
70213;SDS011;60138;55.808;37.078;2022-12-07T16:36:06;10.60;;;6.05;;
70213;SDS011;60138;55.808;37.078;2022-12-07T16:38:32;11.95;;;7.75;;
70213;SDS011;60138;55.808;37.078;2022-12-07T16:40:58;19.53;;;8.77;;
70213;SDS011;60138;55.808;37.078;2022-12-07T16:43:24;17.55;;;8.77;;
70213;SDS011;60138;55.808;37.078;2022-12-07T16:45:50;17.33;;;8.77;;
70213;SDS011;60138;55.808;37.078;2022-12-07T16:48:16;16.58;;;8.63;;
70213;SDS011;60138;55.808;37.078;2022-12-07T16:50:42;16.20;;;6.97;;
70213;SDS011;60138;55.808;37.078;2022-12-07T16:53:09;18.83;;;7.43;;
70213;SDS011;60138;55.808;37.078;2022-12-07T16:55:39;14.52;;;7.32;;
70213;SDS011;60138;55.808;37.078;2022-12-07T16:58:06;15.97;;;7.50;;
70213;SDS011;60138;55.808;37.078;2022-12-07T17:00:32;16.23;;;8.40;;
70213;SDS011;60138;55.808;37.078;2022-12-07T17:02:58;7.93;;;5.65;;
70213;SDS011;60138;55.808;37.078;2022-12-07T17:05:26;14.27;;;8.07;;
70213;SDS011;60138;55.808;37.078;2022-12-07T17:07:52;16.27;;;7.93;;
70213;SDS011;60138;55.808;37.078;2022-12-07T17:10:19;18.75;;;8.60;;
70213;SDS011;60138;55.808;37.078;2022-12-07T17:12:45;13.20;;;7.72;;
70213;SDS011;60138;55.808;37.078;2022-12-07T17:15:10;17.75;;;9.23;;
70213;SDS011;60138;55.808;37.078;2022-12-07T17:17:36;8.63;;;5.80;;
70213;SDS011;60138;55.808;37.078;2022-12-07T17:20:02;12.17;;;7.70;;
70213;SDS011;60138;55.808;37.078;2022-12-07T17:22:29;13.82;;;8.30;;
70213;SDS011;60138;55.808;37.078;2022-12-07T17:24:55;16.10;;;7.82;;
70213;SDS011;60138;55.808;37.078;2022-12-07T17:27:21;12.47;;;6.80;;
70213;SDS011;60138;55.808;37.078;2022-12-07T17:29:47;12.85;;;7.65;;
70213;SDS011;60138;55.808;37.078;2022-12-07T17:32:12;16.30;;;8.67;;
70213;SDS011;60138;55.808;37.078;2022-12-07T17:34:38;12.93;;;7.37;;
70213;SDS011;60138;55.808;37.078;2022-12-07T17:37:04;17.17;;;8.60;;